Time;durP1;ratioP1;P1;durP2;ratioP2;P2;SDS_P1;SDS_P2;PMS_P1;PMS_P2;Temp;Humidity;BMP_temperature;BMP_pressure;BME280_temperature;BME280_humidity;BME280_pressure;Samples;Min_cycle;Max_cycle;Signal;HPM_P1;HPM_P2
2022/09/27 00:00:02;;;;;;;5.70;2.35;;;10.20;99.90;;;;;;5078143;28;20040;-88
2022/09/27 00:02:31;;;;;;;8.13;2.42;;;10.20;99.90;;;;;;5058310;28;20043;-88
2022/09/27 00:05:00;;;;;;;6.35;2.08;;;10.20;99.90;;;;;;5063059;28;20111;-88
2022/09/27 00:07:26;;;;;;;4.18;1.65;;;10.20;99.90;;;;;;5060435;28;20036;-87
2022/09/27 00:09:54;;;;;;;7.65;2.22;;;10.20;99.90;;;;;;5066414;28;20125;-88
2022/09/27 00:12:29;;;;;;;6.15;1.90;;;10.20;99.90;;;;;;5064433;28;20043;-88
2022/09/27 00:15:12;;;;;;;;;;;;;;;;;;;;;
2022/09/27 00:18:15;;;;;;;7.07;1.75;;;10.10;99.90;;;;;;5087129;28;20062;-88
2022/09/27 00:20:44;;;;;;;6.60;1.50;;;10.10;99.90;;;;;;5067894;28;20040;-88
2022/09/27 00:23:20;;;;;;;6.28;1.73;;;10.00;99.90;;;;;;5065852;28;20059;-88
2022/09/27 00:26:07;;;;;;;6.10;1.50;;;9.90;99.90;;;;;;5067102;28;20407;-88
2022/09/27 00:29:07;;;;;;;3.75;1.40;;;9.80;99.90;;;;;;5053216;28;20032;-88
2022/09/27 00:31:42;;;;;;;6.45;1.70;;;9.80;99.90;;;;;;5049308;28;20047;-88
2022/09/27 00:34:17;;;;;;;8.00;1.85;;;9.80;99.90;;;;;;5061412;28;20090;-87
2022/09/27 00:36:54;;;;;;;7.35;1.50;;;9.70;99.90;;;;;;5077266;28;20041;-89
2022/09/27 00:39:23;;;;;;;3.92;1.20;;;9.70;99.90;;;;;;5063881;28;20040;-90
2022/09/27 00:41:55;;;;;;;6.20;1.77;;;9.60;99.90;;;;;;5063905;28;20050;-88
2022/09/27 00:44:23;;;;;;;5.45;1.52;;;9.60;99.90;;;;;;5080970;28;20051;-89
2022/09/27 00:47:12;;;;;;;2.05;1.15;;;9.50;99.90;;;;;;5068536;28;20055;-89
2022/09/27 00:49:54;;;;;;;5.05;1.40;;;9.50;99.90;;;;;;5055958;28;20411;-89
2022/09/27 00:52:29;;;;;;;6.82;1.35;;;9.50;99.90;;;;;;5060869;28;20043;-88
2022/09/27 00:55:01;;;;;;;6.35;1.20;;;9.40;99.90;;;;;;5082302;28;20068;-88
2022/09/27 00:58:07;;;;;;;;;;;;;;;;;;;;;
2022/09/27 01:01:00;;;;;;;2.28;0.90;;;9.40;99.90;;;;;;5077611;28;20036;-88
2022/09/27 01:03:43;;;;;;;3.92;1.23;;;9.30;99.90;;;;;;5058937;28;20028;-89
2022/09/27 01:06:09;;;;;;;7.03;1.33;;;9.30;99.90;;;;;;5060161;28;20452;-90
2022/09/27 01:08:38;;;;;;;5.63;1.23;;;9.30;99.90;;;;;;5086509;28;20040;-89
2022/09/27 01:11:16;;;;;;;4.65;1.48;;;9.40;99.90;;;;;;5057350;28;20047;-89
2022/09/27 01:14:13;;;;;;;5.00;1.23;;;9.30;99.90;;;;;;5075261;28;20043;-89
2022/09/27 01:16:48;;;;;;;6.55;1.38;;;9.30;99.90;;;;;;5036075;28;20047;-89
2022/09/27 01:19:43;;;;;;;5.78;1.10;;;9.30;99.90;;;;;;5059939;28;20051;-90
2022/09/27 01:22:39;;;;;;;4.60;1.20;;;9.30;99.90;;;;;;5092371;28;20407;-89
2022/09/27 01:25:41;;;;;;;5.28;1.40;;;9.30;99.90;;;;;;5091019;28;20506;-89
2022/09/27 01:28:31;;;;;;;6.15;1.10;;;9.30;99.90;;;;;;5092607;28;20028;-90
2022/09/27 01:31:20;;;;;;;4.05;1.20;;;9.30;99.90;;;;;;5075338;28;20062;-89
2022/09/27 01:34:07;;;;;;;2.85;0.80;;;9.30;99.90;;;;;;5075043;28;20047;-89
2022/09/27 01:36:44;;;;;;;6.13;0.90;;;9.30;99.90;;;;;;5073650;28;20047;-89
2022/09/27 01:43:45;;;;;;;3.00;1.05;;;9.30;99.90;;;;;;5056318;28;20036;-89
2022/09/27 01:46:34;;;;;;;6.57;0.98;;;9.40;99.90;;;;;;5075292;28;20182;-88
2022/09/27 01:49:11;;;;;;;3.08;1.00;;;9.40;99.90;;;;;;5091696;28;20067;-89
2022/09/27 01:51:43;;;;;;;;;;;9.40;99.90;;;;;;5051744;28;20047;-88
2022/09/27 01:54:13;;;;;;;4.00;0.85;;;9.40;99.90;;;;;;5059675;28;20323;-88
2022/09/27 01:56:45;;;;;;;1.98;0.88;;;9.40;99.90;;;;;;5049989;28;20449;-89
2022/09/27 01:59:19;;;;;;;5.32;1.00;;;9.50;99.90;;;;;;5076075;28;20068;-88
2022/09/27 02:01:51;;;;;;;2.65;1.13;;;9.50;99.90;;;;;;5065193;28;20112;-88
2022/09/27 02:04:22;;;;;;;4.10;0.90;;;9.50;99.90;;;;;;5059173;28;20044;-88
2022/09/27 02:06:54;;;;;;;1.90;0.80;;;9.50;99.90;;;;;;5073517;28;20048;-89
2022/09/27 02:09:36;;;;;;;5.72;1.08;;;9.50;99.90;;;;;;5103352;28;20075;-88
2022/09/27 02:12:05;;;;;;;2.05;0.90;;;9.50;99.90;;;;;;5075815;28;20052;-89
2022/09/27 02:14:38;;;;;;;3.42;0.80;;;9.50;99.90;;;;;;5071048;28;20036;-89
2022/09/27 02:17:39;;;;;;;4.05;0.95;;;9.40;99.90;;;;;;5049238;28;20131;-88
2022/09/27 02:20:07;;;;;;;3.63;1.00;;;9.40;99.90;;;;;;5040784;28;20048;-88
2022/09/27 02:23:04;;;;;;;4.65;0.93;;;9.40;99.90;;;;;;5093709;28;20036;-89
2022/09/27 02:25:45;;;;;;;3.72;0.80;;;9.40;99.90;;;;;;5072512;28;20066;-88
2022/09/27 02:28:29;;;;;;;4.45;0.93;;;9.30;99.90;;;;;;5076205;28;20500;-89
2022/09/27 02:30:56;;;;;;;3.42;1.15;;;9.30;99.90;;;;;;5087649;28;20100;-88
2022/09/27 02:33:26;;;;;;;3.20;0.70;;;9.40;99.90;;;;;;5098445;28;20044;-87
2022/09/27 02:35:52;;;;;;;5.95;0.70;;;9.40;99.90;;;;;;5087693;28;20560;-88
2022/09/27 02:38:19;;;;;;;3.50;0.90;;;9.30;99.90;;;;;;5069999;28;20072;-88
2022/09/27 02:40:47;;;;;;;3.97;0.80;;;9.30;99.90;;;;;;5075753;28;20032;-88
2022/09/27 02:43:16;;;;;;;3.83;0.90;;;9.30;99.90;;;;;;5052183;28;20047;-88
2022/09/27 02:46:12;;;;;;;3.00;0.70;;;9.30;99.90;;;;;;5072749;28;20044;-88
2022/09/27 02:48:56;;;;;;;3.90;0.80;;;9.30;99.90;;;;;;5039917;28;20044;-89
2022/09/27 02:52:02;;;;;;;1.33;0.55;;;9.30;99.90;;;;;;5070709;28;20400;-88
2022/09/27 02:54:53;;;;;;;2.03;0.70;;;9.20;99.90;;;;;;5067074;28;20043;-89
2022/09/27 02:57:54;;;;;;;5.30;1.13;;;9.20;99.90;;;;;;5069512;28;20453;-89
2022/09/27 03:00:52;;;;;;;3.08;0.90;;;9.10;99.90;;;;;;5057364;28;20076;-88
2022/09/27 03:03:27;;;;;;;1.80;0.70;;;9.10;99.90;;;;;;4971165;28;20058;-88
2022/09/27 03:06:05;;;;;;;3.25;0.93;;;9.10;99.90;;;;;;5078185;28;20081;-88
2022/09/27 03:08:31;;;;;;;1.58;0.80;;;9.00;99.90;;;;;;5048718;28;20108;-88
2022/09/27 03:10:57;;;;;;;4.20;0.90;;;9.00;99.90;;;;;;5079583;28;20068;-88
2022/09/27 03:13:23;;;;;;;2.03;0.85;;;9.00;99.90;;;;;;5073300;28;20115;-87
2022/09/27 03:15:48;;;;;;;4.03;0.80;;;9.00;99.90;;;;;;5082212;28;20530;-88
2022/09/27 03:18:14;;;;;;;2.65;0.70;;;9.00;99.90;;;;;;5058225;28;20038;-88
2022/09/27 03:20:40;;;;;;;2.70;0.77;;;8.90;99.90;;;;;;5077631;28;20115;-88
2022/09/27 03:23:08;;;;;;;2.83;0.80;;;8.90;99.90;;;;;;5092871;28;20073;-88
2022/09/27 03:25:34;;;;;;;2.30;0.63;;;8.90;99.90;;;;;;5076869;28;20036;-88
2022/09/27 03:28:00;;;;;;;1.50;0.50;;;8.90;99.90;;;;;;5110394;28;20070;-88
2022/09/27 03:30:26;;;;;;;3.70;0.65;;;8.90;99.90;;;;;;5082212;28;20032;-88
2022/09/27 03:32:52;;;;;;;3.83;0.82;;;8.90;99.90;;;;;;5080710;28;20036;-88
2022/09/27 03:35:17;;;;;;;3.22;0.70;;;8.80;99.90;;;;;;5086491;28;20039;-88
2022/09/27 03:37:43;;;;;;;2.95;0.77;;;8.90;99.90;;;;;;5078817;28;20052;-88
2022/09/27 03:40:09;;;;;;;1.45;0.60;;;8.80;99.90;;;;;;5078590;28;20032;-88
2022/09/27 03:42:35;;;;;;;3.13;0.70;;;8.90;99.90;;;;;;5068000;28;20042;-88
2022/09/27 03:45:07;;;;;;;1.88;0.60;;;8.70;99.90;;;;;;5058798;28;20120;-88
2022/09/27 03:47:40;;;;;;;3.10;0.70;;;8.70;99.90;;;;;;5067447;28;20464;-88
2022/09/27 03:50:07;;;;;;;4.50;0.80;;;8.70;99.90;;;;;;5078461;28;20106;-88
2022/09/27 03:52:39;;;;;;;2.88;0.93;;;8.70;99.90;;;;;;5062106;28;20055;-88
2022/09/27 03:55:13;;;;;;;2.85;0.85;;;8.70;99.90;;;;;;5066881;28;20064;-87
2022/09/27 03:57:51;;;;;;;2.05;0.68;;;8.70;99.90;;;;;;5094425;28;20089;-86
2022/09/27 04:00:17;;;;;;;2.45;0.75;;;8.70;99.90;;;;;;5079759;28;20101;-88
2022/09/27 04:02:43;;;;;;;1.77;0.65;;;8.70;99.90;;;;;;5079469;28;20032;-88
2022/09/27 04:05:09;;;;;;;4.03;0.70;;;8.70;99.90;;;;;;5062668;28;20043;-88
2022/09/27 04:07:35;;;;;;;2.97;0.82;;;8.70;99.90;;;;;;5062834;28;20044;-86
2022/09/27 04:10:14;;;;;;;3.85;0.75;;;8.70;99.90;;;;;;5079257;28;20040;-86
2022/09/27 04:12:40;;;;;;;3.55;0.68;;;8.70;99.90;;;;;;5056366;28;20492;-86
2022/09/27 04:15:07;;;;;;;3.33;1.05;;;8.70;99.90;;;;;;5068738;28;20062;-86
2022/09/27 04:17:33;;;;;;;2.80;1.13;;;8.70;99.90;;;;;;5068348;28;20051;-86
2022/09/27 04:20:02;;;;;;;3.20;0.75;;;8.70;99.90;;;;;;5086904;28;20060;-85
2022/09/27 04:22:28;;;;;;;2.08;0.93;;;8.70;99.90;;;;;;5051368;28;20033;-86
2022/09/27 04:24:54;;;;;;;2.03;0.80;;;8.60;99.90;;;;;;5063717;28;20058;-89
2022/09/27 04:27:21;;;;;;;2.58;1.00;;;8.60;99.90;;;;;;5077216;28;20036;-88
2022/09/27 04:29:47;;;;;;;2.85;1.10;;;8.60;99.90;;;;;;5048664;28;20041;-87
2022/09/27 04:32:33;;;;;;;2.63;0.80;;;8.60;99.90;;;;;;5057615;28;20067;-87
2022/09/27 04:37:48;;;;;;;2.40;0.80;;;8.60;99.90;;;;;;5092449;28;20067;-88
2022/09/27 04:40:17;;;;;;;4.68;1.00;;;8.60;99.90;;;;;;5081428;28;20036;-88
2022/09/27 04:42:42;;;;;;;3.53;0.70;;;8.60;99.90;;;;;;5067102;28;20040;-87
2022/09/27 04:45:12;;;;;;;1.70;0.70;;;8.60;99.90;;;;;;5084315;28;20116;-87
2022/09/27 04:47:43;;;;;;;2.70;0.93;;;8.60;99.90;;;;;;5059499;28;20183;-86
2022/09/27 04:50:09;;;;;;;2.92;0.80;;;8.60;99.90;;;;;;5067169;28;20469;-86
2022/09/27 04:52:35;;;;;;;1.10;0.73;;;8.60;99.90;;;;;;5066873;28;20042;-86
2022/09/27 04:55:02;;;;;;;2.47;1.05;;;8.60;99.90;;;;;;5065235;28;20522;-86
2022/09/27 04:57:28;;;;;;;3.42;0.73;;;8.60;99.90;;;;;;5082066;28;20032;-85
2022/09/27 04:59:54;;;;;;;1.85;0.70;;;8.60;99.90;;;;;;5080692;28;20043;-87
2022/09/27 05:02:20;;;;;;;2.20;0.98;;;8.70;99.90;;;;;;5082013;28;20028;-86
2022/09/27 05:08:07;;;;;;;2.17;1.10;;;8.60;99.90;;;;;;5121917;22;20577;-29
2022/09/27 05:10:32;;;;;;;2.13;0.70;;;8.60;99.90;;;;;;5111058;28;20231;-29
2022/09/27 05:12:59;;;;;;;6.22;1.08;;;8.60;99.90;;;;;;5106160;28;20035;-33
2022/09/27 05:15:26;;;;;;;2.63;0.80;;;8.60;99.90;;;;;;5110375;28;20453;-32
2022/09/27 05:17:52;;;;;;;1.52;0.70;;;8.60;99.90;;;;;;5105379;28;20062;-31
2022/09/27 05:20:19;;;;;;;2.55;0.80;;;8.60;99.90;;;;;;5101093;28;20039;-29
2022/09/27 05:22:45;;;;;;;1.17;0.70;;;8.60;99.90;;;;;;5107317;28;20502;-30
2022/09/27 05:25:11;;;;;;;1.77;0.80;;;8.50;99.90;;;;;;5104887;28;20496;-29
2022/09/27 05:27:38;;;;;;;2.80;1.60;;;8.50;99.90;;;;;;5083605;28;20123;-29
2022/09/27 05:30:06;;;;;;;2.33;1.10;;;8.50;99.90;;;;;;5098848;28;20040;-30
2022/09/27 05:32:33;;;;;;;3.90;0.98;;;8.50;99.90;;;;;;5111675;28;20035;-30
2022/09/27 05:36:13;;;;;;;1.95;0.90;;;8.40;99.90;;;;;;5112530;28;20053;-31
2022/09/27 05:38:22;;;;;;;2.17;0.82;;;8.40;99.90;;;;;;5104072;28;20501;-32
2022/09/27 05:40:50;;;;;;;3.45;0.70;;;8.30;99.90;;;;;;5112940;28;20051;-27
2022/09/27 05:43:20;;;;;;;4.45;0.88;;;8.30;99.90;;;;;;5113694;28;20127;-27
2022/09/27 05:45:46;;;;;;;4.20;0.82;;;8.30;99.90;;;;;;5112434;28;20101;-26
2022/09/27 05:48:13;;;;;;;0.93;0.55;;;8.20;99.90;;;;;;5113723;28;20126;-26
2022/09/27 05:50:40;;;;;;;2.35;0.63;;;8.20;99.90;;;;;;5112649;28;20036;-27
2022/09/27 05:53:06;;;;;;;3.47;0.80;;;8.20;99.90;;;;;;5113316;28;20165;-27
2022/09/27 05:55:33;;;;;;;3.60;0.98;;;8.20;99.90;;;;;;5095084;28;20047;-26
2022/09/27 05:58:01;;;;;;;2.97;1.58;;;8.10;99.90;;;;;;5095012;28;20043;-25
2022/09/27 06:00:31;;;;;;;3.28;1.20;;;8.10;99.90;;;;;;5092619;28;20069;-33
2022/09/27 06:03:13;;;;;;;2.78;1.00;;;8.10;99.90;;;;;;5092903;28;20043;-25
2022/09/27 06:05:39;;;;;;;2.00;1.10;;;8.00;99.90;;;;;;5112629;28;20044;-25
2022/09/27 06:08:11;;;;;;;2.60;1.00;;;8.10;99.90;;;;;;5111743;28;20160;-27
2022/09/27 06:10:38;;;;;;;2.00;0.98;;;8.00;99.90;;;;;;5112161;28;20039;-27
2022/09/27 06:13:14;;;;;;;3.53;1.15;;;8.00;99.90;;;;;;5111915;28;20473;-26
2022/09/27 06:15:42;;;;;;;2.90;1.00;;;8.00;99.90;;;;;;5112122;28;20038;-26
2022/09/27 06:18:15;;;;;;;3.88;1.27;;;8.00;99.90;;;;;;5111809;28;20065;-27
2022/09/27 06:20:41;;;;;;;2.72;1.10;;;8.00;99.90;;;;;;5112036;28;20047;-27
2022/09/27 06:23:17;;;;;;;2.45;0.73;;;8.00;99.90;;;;;;5111794;28;20039;-26
2022/09/27 06:25:43;;;;;;;2.83;1.15;;;8.10;99.90;;;;;;5111971;28;20370;-27
2022/09/27 06:28:10;;;;;;;4.68;1.35;;;8.10;99.90;;;;;;5111735;28;20073;-28
2022/09/27 06:30:44;;;;;;;6.72;1.42;;;8.10;99.90;;;;;;5111604;28;20040;-26
2022/09/27 06:33:16;;;;;;;3.85;1.50;;;8.20;99.90;;;;;;5112832;28;20047;-28
2022/09/27 06:35:44;;;;;;;5.38;1.30;;;8.30;99.90;;;;;;5111812;28;20490;-26
2022/09/27 06:38:12;;;;;;;3.60;1.30;;;8.30;99.90;;;;;;5111598;28;20073;-25
2022/09/27 06:40:44;;;;;;;3.40;1.10;;;8.40;99.90;;;;;;5111550;28;20048;-27
2022/09/27 06:43:12;;;;;;;3.15;1.30;;;8.40;99.90;;;;;;5111781;28;20044;-27
2022/09/27 06:45:38;;;;;;;5.70;1.27;;;8.40;99.90;;;;;;5111721;28;20485;-26
2022/09/27 06:48:06;;;;;;;6.57;1.50;;;8.40;99.90;;;;;;5111548;28;20063;-26
2022/09/27 06:50:34;;;;;;;1.95;0.98;;;8.50;99.90;;;;;;5111402;28;20042;-27
2022/09/27 06:53:01;;;;;;;5.63;1.17;;;8.60;99.90;;;;;;5111152;28;20118;-26
2022/09/27 06:55:26;;;;;;;3.42;1.20;;;8.70;99.90;;;;;;5111405;28;20391;-26
2022/09/27 07:00:41;;;;;;;3.28;1.17;;;8.90;99.90;;;;;;5112329;28;20039;-26
2022/09/27 07:03:10;;;;;;;5.20;1.40;;;9.00;99.90;;;;;;5111095;28;20048;-27
2022/09/27 07:05:37;;;;;;;2.85;0.95;;;9.10;99.90;;;;;;5111069;28;20082;-26
2022/09/27 07:08:04;;;;;;;3.90;1.30;;;9.10;99.90;;;;;;5094079;28;20086;-25
2022/09/27 07:10:33;;;;;;;3.08;1.27;;;9.20;99.90;;;;;;5111089;28;20392;-26
2022/09/27 07:13:06;;;;;;;5.60;1.40;;;9.20;99.90;;;;;;5110939;28;20431;-28
2022/09/27 07:15:37;;;;;;;3.70;1.27;;;9.20;99.90;;;;;;5110997;28;20040;-27
2022/09/27 07:18:04;;;;;;;3.10;1.10;;;9.30;99.90;;;;;;5111212;28;20046;-26
2022/09/27 07:20:31;;;;;;;6.35;1.35;;;9.30;99.90;;;;;;5113045;28;20028;-26
2022/09/27 07:22:58;;;;;;;5.55;1.10;;;9.40;99.90;;;;;;5115474;28;20396;-27
2022/09/27 07:25:25;;;;;;;3.20;0.95;;;9.50;99.90;;;;;;5115393;28;20067;-27
2022/09/27 07:27:51;;;;;;;4.43;1.05;;;9.50;99.90;;;;;;5116227;28;20040;-25
2022/09/27 07:30:18;;;;;;;3.70;1.05;;;9.60;99.90;;;;;;5115405;28;20043;-27
2022/09/27 07:32:44;;;;;;;3.08;0.90;;;9.60;99.90;;;;;;5116352;28;20522;-27
2022/09/27 07:35:13;;;;;;;5.22;0.90;;;9.70;99.90;;;;;;5116501;28;20027;-27
2022/09/27 07:37:39;;;;;;;3.30;0.90;;;9.70;99.90;;;;;;5097693;28;20044;-27
2022/09/27 07:40:08;;;;;;;6.30;1.15;;;9.80;99.90;;;;;;5115071;28;20035;-28
2022/09/27 07:42:37;;;;;;;3.55;0.90;;;10.00;99.90;;;;;;5115906;28;20039;-26
2022/09/27 07:45:05;;;;;;;3.40;0.80;;;10.20;99.90;;;;;;5115067;28;20377;-26
2022/09/27 07:47:32;;;;;;;3.72;1.80;;;10.50;99.90;;;;;;5114753;28;20035;-28
2022/09/27 07:49:58;;;;;;;2.60;0.82;;;10.60;99.90;;;;;;5114877;28;20073;-27
2022/09/27 07:52:23;;;;;;;4.43;0.82;;;10.70;99.90;;;;;;5114729;28;20039;-27
2022/09/27 07:54:50;;;;;;;1.92;0.90;;;10.60;99.90;;;;;;5097611;28;20044;-28
2022/09/27 07:57:16;;;;;;;2.03;1.05;;;10.60;99.90;;;;;;5114451;28;20118;-27
2022/09/27 07:59:42;;;;;;;3.97;0.75;;;10.60;99.90;;;;;;5116003;28;20110;-27
2022/09/27 08:02:17;;;;;;;2.05;0.80;;;10.60;99.90;;;;;;5114676;28;20035;-28
2022/09/27 08:04:45;;;;;;;1.98;0.80;;;10.50;99.90;;;;;;5115946;28;20312;-27
2022/09/27 08:07:13;;;;;;;2.17;0.90;;;10.50;99.90;;;;;;5097241;28;20079;-27
2022/09/27 08:09:38;;;;;;;3.75;1.00;;;10.50;99.90;;;;;;5114401;28;20044;-28
2022/09/27 08:12:04;;;;;;;2.75;0.88;;;10.60;99.90;;;;;;5115803;28;20042;-29
2022/09/27 08:14:31;;;;;;;1.35;0.80;;;10.70;99.90;;;;;;5114257;28;20047;-27
2022/09/27 08:16:57;;;;;;;2.60;0.82;;;10.70;99.90;;;;;;5097420;28;20044;-27
2022/09/27 08:19:25;;;;;;;3.53;1.10;;;10.80;99.90;;;;;;5114402;28;20593;-27
2022/09/27 08:21:53;;;;;;;3.53;0.90;;;10.80;99.90;;;;;;5114114;28;20035;-27
2022/09/27 08:24:20;;;;;;;3.10;0.80;;;10.80;99.90;;;;;;5097091;28;20503;-27
2022/09/27 08:26:46;;;;;;;3.83;0.80;;;10.90;99.90;;;;;;5114135;28;20506;-28
2022/09/27 08:29:12;;;;;;;3.40;1.00;;;11.20;99.90;;;;;;5114252;28;20473;-27
2022/09/27 08:31:40;;;;;;;2.88;0.63;;;11.90;99.90;;;;;;5095870;28;20089;-27
2022/09/27 08:34:07;;;;;;;3.38;0.63;;;12.40;99.90;;;;;;5114785;28;20083;-27
2022/09/27 08:36:36;;;;;;;2.78;0.80;;;12.70;99.90;;;;;;5113685;28;20086;-28
2022/09/27 08:39:03;;;;;;;2.55;0.82;;;13.00;99.90;;;;;;5113978;28;20117;-27
2022/09/27 08:42:04;;;;;;;3.20;0.95;;;13.50;99.90;;;;;;5113852;28;20032;-27
2022/09/27 08:45:25;;;;;;;1.40;0.90;;;13.80;99.90;;;;;;5114639;28;20496;-29
2022/09/27 08:49:08;;;;;;;2.53;1.00;;;14.40;99.90;;;;;;5044905;28;20048;-28
2022/09/27 08:51:35;;;;;;;1.38;0.50;;;15.20;99.90;;;;;;5030376;28;20081;-29
2022/09/27 08:54:13;;;;;;;1.80;0.70;;;15.40;99.90;;;;;;5032286;28;20482;-28
2022/09/27 08:57:16;;;;;;;5.72;0.80;;;15.20;99.90;;;;;;5008840;28;20049;-30
2022/09/27 09:00:09;;;;;;;2.10;0.50;;;14.60;99.90;;;;;;5046503;28;20086;-35
2022/09/27 09:02:41;;;;;;;1.98;0.50;;;14.10;99.90;;;;;;5070533;28;20505;-26
2022/09/27 09:05:15;;;;;;;0.47;0.25;;;13.50;99.90;;;;;;5110290;28;20059;-29
2022/09/27 09:08:16;;;;;;;5.03;0.60;;;13.10;99.90;;;;;;5080457;28;20078;-27
2022/09/27 09:21:33;;;;;;;1.77;0.40;;;11.60;99.90;;;;;;5118086;22;20430;-33
2022/09/27 09:24:19;;;;;;;0.80;0.40;;;11.40;99.90;;;;;;5069926;28;20389;-31
2022/09/27 09:27:02;;;;;;;1.73;0.40;;;11.40;99.90;;;;;;5074420;28;20104;-31
2022/09/27 09:29:53;;;;;;;1.45;0.50;;;11.40;99.90;;;;;;5083922;28;20111;-32
2022/09/27 09:32:44;;;;;;;1.88;0.65;;;11.50;99.90;;;;;;5070911;28;20079;-32
2022/09/27 09:35:21;;;;;;;1.52;0.80;;;11.90;99.90;;;;;;5071357;28;20435;-30
2022/09/27 09:37:54;;;;;;;1.80;0.52;;;12.20;99.90;;;;;;5079741;28;20516;-30
2022/09/27 09:40:40;;;;;;;3.17;0.60;;;12.50;99.90;;;;;;5082716;28;20095;-31
2022/09/27 09:43:18;;;;;;;2.85;0.60;;;12.80;99.90;;;;;;5074481;28;20118;-31
2022/09/27 09:46:18;;;;;;;3.38;0.70;;;12.90;99.90;;;;;;5068680;28;20085;-30
2022/09/27 09:48:58;;;;;;;6.85;0.85;;;13.00;99.90;;;;;;5079977;28;20043;-32
2022/09/27 09:51:29;;;;;;;1.35;0.55;;;12.80;99.90;;;;;;5072806;28;20105;-31
2022/09/27 09:54:14;;;;;;;1.83;0.50;;;12.70;99.90;;;;;;5092522;28;20133;-30
2022/09/27 09:56:52;;;;;;;0.98;0.40;;;12.50;99.90;;;;;;5091249;28;20040;-34
2022/09/27 09:59:48;;;;;;;0.38;0.38;;;12.40;99.90;;;;;;5057678;28;20051;-31
2022/09/27 10:02:25;;;;;;;1.60;0.35;;;12.30;99.90;;;;;;5059424;28;20055;-31
2022/09/27 10:04:51;;;;;;;1.05;0.30;;;12.30;99.90;;;;;;5077630;28;20043;-30
2022/09/27 10:07:22;;;;;;;0.30;0.30;;;12.50;99.90;;;;;;5076861;28;20506;-31
2022/09/27 10:09:51;;;;;;;0.43;0.40;;;12.60;99.90;;;;;;5084130;28;20420;-32
2022/09/27 10:12:17;;;;;;;2.17;0.82;;;13.20;99.90;;;;;;5072613;28;20036;-30
2022/09/27 10:14:46;;;;;;;1.90;0.40;;;13.80;99.90;;;;;;5086246;28;20032;-32
2022/09/27 10:17:17;;;;;;;0.60;0.20;;;14.40;99.90;;;;;;5070181;28;20036;-32
2022/09/27 10:19:44;;;;;;;0.63;0.15;;;14.60;99.90;;;;;;5070871;28;20127;-30
2022/09/27 10:22:13;;;;;;;0.77;0.25;;;14.70;99.90;;;;;;5070192;28;20488;-30
2022/09/27 10:25:00;;;;;;;1.48;0.30;;;14.90;99.90;;;;;;5070427;28;20035;-31
2022/09/27 10:27:26;;;;;;;0.32;0.20;;;15.10;99.90;;;;;;5070425;28;20040;-30
2022/09/27 10:29:58;;;;;;;0.70;0.22;;;15.00;99.90;;;;;;5080214;28;20121;-30
2022/09/27 10:32:31;;;;;;;0.40;0.10;;;14.90;99.90;;;;;;5061942;28;20079;-31
2022/09/27 10:35:28;;;;;;;0.20;0.20;;;15.00;99.90;;;;;;5067310;28;20040;-31
2022/09/27 10:38:22;;;;;;;0.55;0.30;;;15.30;99.90;;;;;;5070406;28;20062;-29
2022/09/27 10:40:49;;;;;;;2.03;0.30;;;15.30;99.90;;;;;;5072890;28;20035;-30
2022/09/27 10:43:35;;;;;;;0.77;0.28;;;15.10;99.90;;;;;;5073422;28;20374;-31
2022/09/27 10:46:19;;;;;;;0.60;0.25;;;14.90;99.90;;;;;;5069173;28;20071;-30
2022/09/27 10:48:44;;;;;;;1.08;0.20;;;14.70;99.90;;;;;;5073835;28;20036;-29
2022/09/27 10:51:31;;;;;;;0.28;0.28;;;14.50;99.90;;;;;;5079690;28;20115;-30
2022/09/27 10:54:00;;;;;;;0.50;0.28;;;14.50;99.90;;;;;;5072224;28;20066;-30
2022/09/27 10:56:34;;;;;;;0.85;0.20;;;14.40;99.90;;;;;;5070510;28;20028;-32
2022/09/27 10:59:02;;;;;;;0.75;0.35;;;14.70;99.90;;;;;;5079905;28;20055;-32
2022/09/27 11:01:50;;;;;;;1.13;0.30;;;14.90;99.90;;;;;;5063439;28;20066;-31
2022/09/27 11:04:32;;;;;;;0.80;0.40;;;15.10;99.90;;;;;;5077086;28;20079;-30
2022/09/27 11:07:11;;;;;;;1.42;0.70;;;15.30;99.90;;;;;;5073400;28;20041;-30
2022/09/27 11:10:01;;;;;;;1.30;0.38;;;15.60;99.90;;;;;;5088334;28;20040;-30
2022/09/27 11:12:29;;;;;;;2.97;0.60;;;16.30;99.90;;;;;;5069540;28;20058;-30
2022/09/27 11:15:08;;;;;;;2.28;0.55;;;16.40;99.90;;;;;;5070512;28;20044;-30
2022/09/27 11:17:40;;;;;;;1.73;0.63;;;16.20;99.90;;;;;;5073131;28;20230;-31
2022/09/27 11:20:26;;;;;;;2.10;0.90;;;16.60;99.90;;;;;;5069656;28;20037;-31
2022/09/27 11:23:22;;;;;;;2.25;0.57;;;17.20;99.90;;;;;;5066825;28;20040;-32
2022/09/27 11:26:13;;;;;;;1.48;0.45;;;17.50;99.90;;;;;;5064383;28;20043;-34
2022/09/27 11:29:04;;;;;;;1.15;0.50;;;17.50;99.90;;;;;;5048231;28;20485;-32
2022/09/27 11:31:54;;;;;;;2.40;0.50;;;16.80;99.90;;;;;;5073262;28;20047;-31
2022/09/27 11:34:39;;;;;;;1.02;0.30;;;15.50;99.90;;;;;;5069823;28;20472;-31
2022/09/27 11:37:18;;;;;;;1.08;0.40;;;14.50;99.90;;;;;;5070414;28;20040;-30
2022/09/27 11:39:58;;;;;;;1.30;0.30;;;14.00;99.90;;;;;;5066060;28;20064;-30
2022/09/27 11:42:51;;;;;;;2.78;0.32;;;13.80;99.90;;;;;;5051309;28;20032;-30
2022/09/27 11:45:35;;;;;;;0.85;0.40;;;13.90;99.90;;;;;;5051222;28;20048;-29
2022/09/27 11:48:31;;;;;;;0.30;0.30;;;14.30;99.90;;;;;;5073329;28;20051;-29
2022/09/27 11:51:23;;;;;;;1.42;0.22;;;14.60;99.90;;;;;;5067800;28;20064;-32
2022/09/27 11:54:08;;;;;;;0.57;0.40;;;14.90;99.90;;;;;;5084243;28;20040;-31
2022/09/27 11:56:52;;;;;;;1.38;0.40;;;14.80;99.90;;;;;;5057007;28;20557;-29
2022/09/27 11:59:55;;;;;;;0.32;0.30;;;14.70;99.90;;;;;;5074264;28;20040;-29
2022/09/27 12:02:31;;;;;;;0.10;0.10;;;14.60;99.90;;;;;;5073627;28;20077;-28
2022/09/27 12:05:38;;;;;;;0.95;0.30;;;14.50;99.90;;;;;;5073392;28;20040;-28
2022/09/27 12:08:47;;;;;;;0.38;0.20;;;14.40;99.90;;;;;;5075031;28;20028;-30
2022/09/27 12:11:37;;;;;;;0.32;0.17;;;14.50;99.90;;;;;;5076668;28;20103;-33
2022/09/27 12:14:30;;;;;;;0.63;0.30;;;14.70;99.90;;;;;;5072108;28;20047;-34
2022/09/27 12:16:57;;;;;;;0.30;0.20;;;14.90;99.90;;;;;;5092451;28;20144;-31
2022/09/27 12:19:29;;;;;;;0.68;0.40;;;15.00;99.90;;;;;;5075365;28;20066;-28
2022/09/27 12:21:59;;;;;;;0.20;0.20;;;15.10;99.90;;;;;;5095167;28;20044;-30
2022/09/27 12:24:27;;;;;;;1.08;0.20;;;15.40;99.90;;;;;;5057344;28;20054;-31
2022/09/27 12:27:07;;;;;;;0.20;0.17;;;15.70;99.90;;;;;;5076404;28;20131;-33
2022/09/27 12:29:40;;;;;;;0.73;0.30;;;16.00;99.90;;;;;;5068698;28;20111;-30
2022/09/27 12:32:29;;;;;;;0.10;0.10;;;15.80;99.90;;;;;;5055791;28;20045;-31
2022/09/27 12:35:11;;;;;;;0.75;0.20;;;15.90;99.90;;;;;;5079610;28;20079;-32
2022/09/27 12:38:01;;;;;;;2.03;0.55;;;15.80;99.90;;;;;;5051394;28;20114;-32
2022/09/27 12:40:35;;;;;;;0.20;0.20;;;15.40;99.90;;;;;;5057052;28;20036;-31
2022/09/27 12:43:34;;;;;;;1.88;0.32;;;15.40;99.90;;;;;;5080227;28;20128;-31
2022/09/27 12:46:29;;;;;;;0.95;0.40;;;15.50;99.90;;;;;;5071259;28;20400;-31
2022/09/27 12:49:32;;;;;;;2.47;0.52;;;15.80;99.90;;;;;;5088708;28;20077;-30
2022/09/27 12:59:29;;;;;;;1.60;0.43;;;16.30;99.90;;;;;;5095301;28;20097;-27
2022/09/27 13:02:20;;;;;;;1.90;0.52;;;15.90;99.90;;;;;;5076391;28;20047;-31
2022/09/27 13:05:23;;;;;;;3.22;0.70;;;15.70;99.90;;;;;;5074184;28;20047;-27
2022/09/27 13:07:55;;;;;;;1.92;0.45;;;16.00;99.90;;;;;;5056145;28;20502;-28
2022/09/27 13:10:57;;;;;;;2.20;0.50;;;16.30;99.90;;;;;;5056027;28;20036;-27
2022/09/27 13:13:28;;;;;;;4.35;0.50;;;16.30;99.90;;;;;;5039428;28;20501;-28
2022/09/27 13:16:00;;;;;;;3.17;0.52;;;16.10;99.90;;;;;;5055667;28;21996;-28
2022/09/27 13:18:36;;;;;;;1.67;0.65;;;15.90;99.90;;;;;;5055016;28;20098;-28
2022/09/27 13:21:08;;;;;;;2.08;0.40;;;16.30;99.90;;;;;;5073385;28;20120;-28
2022/09/27 13:23:34;;;;;;;0.80;0.40;;;16.60;99.90;;;;;;5055565;28;20032;-29
2022/09/27 13:26:19;;;;;;;1.27;0.57;;;16.70;99.90;;;;;;5038814;28;20045;-28
2022/09/27 13:28:50;;;;;;;3.00;0.45;;;16.70;99.90;;;;;;5055663;28;20044;-27
2022/09/27 13:31:57;;;;;;;1.25;0.35;;;16.30;99.90;;;;;;5055450;28;20072;-28
2022/09/27 13:34:44;;;;;;;2.25;0.43;;;15.80;99.90;;;;;;5055286;28;20032;-27
2022/09/27 13:37:35;;;;;;;2.13;0.50;;;15.20;99.90;;;;;;5055298;28;20035;-28
2022/09/27 13:40:32;;;;;;;1.23;0.40;;;14.70;99.90;;;;;;5055628;28;20032;-28
2022/09/27 13:43:04;;;;;;;1.27;0.60;;;14.20;99.90;;;;;;5055533;28;20038;-28
2022/09/27 13:45:54;;;;;;;1.23;0.40;;;13.70;99.90;;;;;;5055215;28;20062;-28
2022/09/27 13:48:31;;;;;;;1.63;0.50;;;13.60;99.90;;;;;;5071298;28;20148;-29
2022/09/27 13:51:15;;;;;;;1.92;0.40;;;14.00;99.90;;;;;;5055039;28;20561;-28
2022/09/27 13:53:53;;;;;;;2.10;0.55;;;14.10;99.90;;;;;;5072660;28;20413;-27
2022/09/27 13:56:39;;;;;;;4.82;0.70;;;14.40;99.90;;;;;;5055178;28;20037;-28
2022/09/27 13:59:09;;;;;;;0.40;0.32;;;14.50;99.90;;;;;;5055184;28;20043;-28
2022/09/27 14:01:40;;;;;;;1.58;0.50;;;14.60;99.90;;;;;;5054731;28;20044;-28
2022/09/27 14:04:29;;;;;;;2.00;0.45;;;14.50;99.90;;;;;;5055050;28;20389;-28
2022/09/27 14:06:59;;;;;;;1.42;0.52;;;14.50;99.90;;;;;;5055169;28;20044;-27
2022/09/27 14:09:38;;;;;;;1.65;0.60;;;14.40;99.90;;;;;;5054866;28;20131;-27
2022/09/27 14:12:17;;;;;;;1.58;0.50;;;14.50;99.90;;;;;;5054857;28;20563;-27